sensor_id;sensor_type;location;lat;lon;timestamp;temperature;humidity
5041;DHT22;2539;52.568;13.364;2023-09-19T00:02:18;18.30;99.90
5041;DHT22;2539;52.568;13.364;2023-09-19T00:04:44;18.30;99.90
5041;DHT22;2539;52.568;13.364;2023-09-19T00:07:10;18.30;99.90
5041;DHT22;2539;52.568;13.364;2023-09-19T00:09:37;18.30;99.90
5041;DHT22;2539;52.568;13.364;2023-09-19T00:12:07;18.20;99.90
5041;DHT22;2539;52.568;13.364;2023-09-19T00:14:35;18.20;99.90
5041;DHT22;2539;52.568;13.364;2023-09-19T00:17:08;18.20;99.90
5041;DHT22;2539;52.568;13.364;2023-09-19T00:19:35;18.20;99.90
5041;DHT22;2539;52.568;13.364;2023-09-19T00:22:01;18.20;99.90
5041;DHT22;2539;52.568;13.364;2023-09-19T00:24:27;18.20;99.90
5041;DHT22;2539;52.568;13.364;2023-09-19T00:26:54;18.10;99.90
5041;DHT22;2539;52.568;13.364;2023-09-19T00:29:23;18.10;99.90
5041;DHT22;2539;52.568;13.364;2023-09-19T00:31:49;18.00;99.90
5041;DHT22;2539;52.568;13.364;2023-09-19T00:34:16;18.10;99.90
5041;DHT22;2539;52.568;13.364;2023-09-19T00:36:42;18.00;99.90
5041;DHT22;2539;52.568;13.364;2023-09-19T00:39:09;18.00;99.90
5041;DHT22;2539;52.568;13.364;2023-09-19T00:41:36;18.00;99.90
5041;DHT22;2539;52.568;13.364;2023-09-19T00:44:03;18.00;99.90
5041;DHT22;2539;52.568;13.364;2023-09-19T00:46:31;18.00;99.90
5041;DHT22;2539;52.568;13.364;2023-09-19T00:48:58;18.00;99.90
5041;DHT22;2539;52.568;13.364;2023-09-19T00:51:26;18.00;99.90
5041;DHT22;2539;52.568;13.364;2023-09-19T00:53:54;17.90;99.90
5041;DHT22;2539;52.568;13.364;2023-09-19T00:56:21;18.00;99.90
5041;DHT22;2539;52.568;13.364;2023-09-19T00:58:47;17.90;99.90
5041;DHT22;2539;52.568;13.364;2023-09-19T01:01:14;18.00;99.90
5041;DHT22;2539;52.568;13.364;2023-09-19T01:03:42;17.90;99.90
5041;DHT22;2539;52.568;13.364;2023-09-19T01:06:08;17.90;99.90
5041;DHT22;2539;52.568;13.364;2023-09-19T01:08:35;17.90;99.90
5041;DHT22;2539;52.568;13.364;2023-09-19T01:11:13;17.90;99.90
5041;DHT22;2539;52.568;13.364;2023-09-19T01:13:47;17.90;99.90
5041;DHT22;2539;52.568;13.364;2023-09-19T01:16:42;17.90;99.90
5041;DHT22;2539;52.568;13.364;2023-09-19T01:25:32;18.00;99.90
5041;DHT22;2539;52.568;13.364;2023-09-19T01:28:34;18.00;99.90
5041;DHT22;2539;52.568;13.364;2023-09-19T01:31:06;18.00;99.90
5041;DHT22;2539;52.568;13.364;2023-09-19T01:34:01;18.10;99.90
5041;DHT22;2539;52.568;13.364;2023-09-19T01:36:35;18.10;99.90
5041;DHT22;2539;52.568;13.364;2023-09-19T01:39:07;18.20;99.90
5041;DHT22;2539;52.568;13.364;2023-09-19T01:42:15;18.20;99.90
5041;DHT22;2539;52.568;13.364;2023-09-19T01:44:57;18.20;99.90
5041;DHT22;2539;52.568;13.364;2023-09-19T01:47:51;18.30;99.90
5041;DHT22;2539;52.568;13.364;2023-09-19T01:53:12;18.30;99.90
5041;DHT22;2539;52.568;13.364;2023-09-19T01:55:43;18.20;99.90
5041;DHT22;2539;52.568;13.364;2023-09-19T01:58:17;18.00;99.90
5041;DHT22;2539;52.568;13.364;2023-09-19T02:00:48;17.90;99.90
5041;DHT22;2539;52.568;13.364;2023-09-19T02:03:18;17.90;99.90
5041;DHT22;2539;52.568;13.364;2023-09-19T02:05:50;17.80;99.90
5041;DHT22;2539;52.568;13.364;2023-09-19T02:08:19;17.70;99.90
5041;DHT22;2539;52.568;13.364;2023-09-19T02:10:45;17.70;99.90
5041;DHT22;2539;52.568;13.364;2023-09-19T02:13:22;17.60;99.90
5041;DHT22;2539;52.568;13.364;2023-09-19T02:15:51;17.60;99.90
5041;DHT22;2539;52.568;13.364;2023-09-19T02:18:18;17.60;99.90
5041;DHT22;2539;52.568;13.364;2023-09-19T02:20:44;17.50;99.90
5041;DHT22;2539;52.568;13.364;2023-09-19T02:23:12;17.40;99.90
5041;DHT22;2539;52.568;13.364;2023-09-19T02:25:39;17.40;99.90
5041;DHT22;2539;52.568;13.364;2023-09-19T02:28:06;17.40;99.90
5041;DHT22;2539;52.568;13.364;2023-09-19T02:30:33;17.30;99.90
5041;DHT22;2539;52.568;13.364;2023-09-19T02:32:59;17.30;99.90
5041;DHT22;2539;52.568;13.364;2023-09-19T02:35:29;17.30;99.90
5041;DHT22;2539;52.568;13.364;2023-09-19T02:37:59;17.20;99.90
5041;DHT22;2539;52.568;13.364;2023-09-19T02:40:25;17.20;99.90
5041;DHT22;2539;52.568;13.364;2023-09-19T02:42:55;17.20;99.90
5041;DHT22;2539;52.568;13.364;2023-09-19T02:45:22;17.10;99.90
5041;DHT22;2539;52.568;13.364;2023-09-19T02:47:49;17.10;99.90
5041;DHT22;2539;52.568;13.364;2023-09-19T02:50:16;17.10;99.90
5041;DHT22;2539;52.568;13.364;2023-09-19T02:52:44;17.10;99.90
5041;DHT22;2539;52.568;13.364;2023-09-19T02:55:13;17.10;99.90
5041;DHT22;2539;52.568;13.364;2023-09-19T02:57:50;17.10;99.90
5041;DHT22;2539;52.568;13.364;2023-09-19T03:00:18;17.10;99.90
5041;DHT22;2539;52.568;13.364;2023-09-19T03:02:54;17.10;99.90
5041;DHT22;2539;52.568;13.364;2023-09-19T03:05:22;17.10;99.90
5041;DHT22;2539;52.568;13.364;2023-09-19T03:07:49;17.10;99.90
5041;DHT22;2539;52.568;13.364;2023-09-19T03:10:19;17.10;99.90
5041;DHT22;2539;52.568;13.364;2023-09-19T03:12:49;17.10;99.90
5041;DHT22;2539;52.568;13.364;2023-09-19T03:15:16;17.10;99.90
5041;DHT22;2539;52.568;13.364;2023-09-19T03:17:44;17.10;99.90
5041;DHT22;2539;52.568;13.364;2023-09-19T03:20:11;17.10;99.90
5041;DHT22;2539;52.568;13.364;2023-09-19T03:22:39;17.20;99.90
5041;DHT22;2539;52.568;13.364;2023-09-19T03:25:08;17.20;99.90
5041;DHT22;2539;52.568;13.364;2023-09-19T03:27:36;17.20;99.90
5041;DHT22;2539;52.568;13.364;2023-09-19T03:30:04;17.20;99.90
5041;DHT22;2539;52.568;13.364;2023-09-19T03:32:37;17.20;99.90
5041;DHT22;2539;52.568;13.364;2023-09-19T03:35:08;17.30;99.90
5041;DHT22;2539;52.568;13.364;2023-09-19T03:37:36;17.30;99.90
5041;DHT22;2539;52.568;13.364;2023-09-19T03:40:02;17.30;99.90
5041;DHT22;2539;52.568;13.364;2023-09-19T03:42:31;17.30;99.90
5041;DHT22;2539;52.568;13.364;2023-09-19T03:44:58;17.30;99.90
5041;DHT22;2539;52.568;13.364;2023-09-19T03:47:25;17.30;99.90
5041;DHT22;2539;52.568;13.364;2023-09-19T03:49:52;17.30;99.90
5041;DHT22;2539;52.568;13.364;2023-09-19T03:52:18;17.40;99.90
5041;DHT22;2539;52.568;13.364;2023-09-19T03:54:44;17.40;99.90
5041;DHT22;2539;52.568;13.364;2023-09-19T03:57:10;17.30;99.90
5041;DHT22;2539;52.568;13.364;2023-09-19T03:59:41;17.30;99.90
5041;DHT22;2539;52.568;13.364;2023-09-19T04:02:09;17.40;99.90
5041;DHT22;2539;52.568;13.364;2023-09-19T04:04:51;17.40;99.90
5041;DHT22;2539;52.568;13.364;2023-09-19T04:07:18;17.40;99.90
5041;DHT22;2539;52.568;13.364;2023-09-19T04:09:48;17.30;99.90
5041;DHT22;2539;52.568;13.364;2023-09-19T04:12:15;17.30;99.90
5041;DHT22;2539;52.568;13.364;2023-09-19T04:14:44;17.30;99.90
5041;DHT22;2539;52.568;13.364;2023-09-19T04:17:10;17.20;99.90
5041;DHT22;2539;52.568;13.364;2023-09-19T04:19:37;17.20;99.90
5041;DHT22;2539;52.568;13.364;2023-09-19T04:22:03;17.20;99.90
5041;DHT22;2539;52.568;13.364;2023-09-19T04:24:30;17.20;99.90
5041;DHT22;2539;52.568;13.364;2023-09-19T04:26:58;17.20;99.90
5041;DHT22;2539;52.568;13.364;2023-09-19T04:29:25;17.20;99.90
5041;DHT22;2539;52.568;13.364;2023-09-19T04:31:56;17.10;99.90
5041;DHT22;2539;52.568;13.364;2023-09-19T04:34:25;17.00;99.90
5041;DHT22;2539;52.568;13.364;2023-09-19T04:36:51;17.10;99.90
5041;DHT22;2539;52.568;13.364;2023-09-19T04:39:19;17.00;99.90
5041;DHT22;2539;52.568;13.364;2023-09-19T04:41:45;17.00;99.90
5041;DHT22;2539;52.568;13.364;2023-09-19T04:44:13;17.00;99.90
5041;DHT22;2539;52.568;13.364;2023-09-19T04:46:40;16.90;99.90
5041;DHT22;2539;52.568;13.364;2023-09-19T04:49:06;16.90;99.90
5041;DHT22;2539;52.568;13.364;2023-09-19T04:51:32;16.90;99.90
5041;DHT22;2539;52.568;13.364;2023-09-19T04:54:01;16.90;99.90
5041;DHT22;2539;52.568;13.364;2023-09-19T04:56:27;16.90;99.90
5041;DHT22;2539;52.568;13.364;2023-09-19T04:58:54;16.80;99.90
5041;DHT22;2539;52.568;13.364;2023-09-19T05:01:21;16.80;99.90
5041;DHT22;2539;52.568;13.364;2023-09-19T05:03:49;16.60;99.90
5041;DHT22;2539;52.568;13.364;2023-09-19T05:06:19;16.60;99.90
5041;DHT22;2539;52.568;13.364;2023-09-19T05:08:51;16.60;99.90
5041;DHT22;2539;52.568;13.364;2023-09-19T05:11:19;16.60;99.90
5041;DHT22;2539;52.568;13.364;2023-09-19T05:13:46;16.50;99.90
5041;DHT22;2539;52.568;13.364;2023-09-19T05:16:12;16.50;99.90
5041;DHT22;2539;52.568;13.364;2023-09-19T05:18:38;16.50;99.90
5041;DHT22;2539;52.568;13.364;2023-09-19T05:21:05;16.50;99.90
5041;DHT22;2539;52.568;13.364;2023-09-19T05:23:31;16.50;99.90
5041;DHT22;2539;52.568;13.364;2023-09-19T05:25:58;16.60;99.90
5041;DHT22;2539;52.568;13.364;2023-09-19T05:28:26;16.50;99.90
5041;DHT22;2539;52.568;13.364;2023-09-19T05:30:53;16.50;99.90
5041;DHT22;2539;52.568;13.364;2023-09-19T05:33:19;16.60;99.90
5041;DHT22;2539;52.568;13.364;2023-09-19T05:35:48;16.60;99.90
5041;DHT22;2539;52.568;13.364;2023-09-19T05:38:14;16.60;99.90
5041;DHT22;2539;52.568;13.364;2023-09-19T05:40:45;16.60;99.90
5041;DHT22;2539;52.568;13.364;2023-09-19T05:43:12;16.70;99.90
5041;DHT22;2539;52.568;13.364;2023-09-19T05:45:40;16.70;99.90
5041;DHT22;2539;52.568;13.364;2023-09-19T05:48:11;16.70;99.90
5041;DHT22;2539;52.568;13.364;2023-09-19T05:50:39;16.70;99.90
5041;DHT22;2539;52.568;13.364;2023-09-19T05:53:06;16.80;99.90
5041;DHT22;2539;52.568;13.364;2023-09-19T05:55:33;16.80;99.90
5041;DHT22;2539;52.568;13.364;2023-09-19T05:57:59;16.80;99.90
5041;DHT22;2539;52.568;13.364;2023-09-19T06:00:26;16.80;99.90
5041;DHT22;2539;52.568;13.364;2023-09-19T06:02:54;16.70;99.90
5041;DHT22;2539;52.568;13.364;2023-09-19T06:05:25;16.80;99.90
5041;DHT22;2539;52.568;13.364;2023-09-19T06:07:56;16.80;99.90
5041;DHT22;2539;52.568;13.364;2023-09-19T06:10:26;16.90;99.90
5041;DHT22;2539;52.568;13.364;2023-09-19T06:12:54;16.90;99.90
5041;DHT22;2539;52.568;13.364;2023-09-19T06:15:21;17.00;99.90
5041;DHT22;2539;52.568;13.364;2023-09-19T06:17:53;17.20;99.90
5041;DHT22;2539;52.568;13.364;2023-09-19T06:20:23;17.30;99.90
5041;DHT22;2539;52.568;13.364;2023-09-19T06:22:51;17.40;99.90
5041;DHT22;2539;52.568;13.364;2023-09-19T06:25:17;17.50;99.90
5041;DHT22;2539;52.568;13.364;2023-09-19T06:27:45;17.60;99.90
5041;DHT22;2539;52.568;13.364;2023-09-19T06:30:11;17.70;99.90
5041;DHT22;2539;52.568;13.364;2023-09-19T06:32:37;17.70;99.90
5041;DHT22;2539;52.568;13.364;2023-09-19T06:35:05;17.80;99.90
5041;DHT22;2539;52.568;13.364;2023-09-19T06:37:34;17.80;99.90
5041;DHT22;2539;52.568;13.364;2023-09-19T06:40:13;17.90;99.90
5041;DHT22;2539;52.568;13.364;2023-09-19T06:42:52;18.00;99.90
5041;DHT22;2539;52.568;13.364;2023-09-19T06:45:18;18.20;99.90
5041;DHT22;2539;52.568;13.364;2023-09-19T06:47:45;18.20;99.90
5041;DHT22;2539;52.568;13.364;2023-09-19T06:50:12;18.40;99.90
5041;DHT22;2539;52.568;13.364;2023-09-19T06:52:42;18.50;99.90
5041;DHT22;2539;52.568;13.364;2023-09-19T06:55:08;18.70;99.90
5041;DHT22;2539;52.568;13.364;2023-09-19T06:57:36;18.80;99.90
5041;DHT22;2539;52.568;13.364;2023-09-19T07:00:02;18.80;99.90
5041;DHT22;2539;52.568;13.364;2023-09-19T07:02:31;19.10;99.90
5041;DHT22;2539;52.568;13.364;2023-09-19T07:04:57;19.30;99.90
5041;DHT22;2539;52.568;13.364;2023-09-19T07:07:23;19.40;99.90
5041;DHT22;2539;52.568;13.364;2023-09-19T07:09:50;19.20;99.90
5041;DHT22;2539;52.568;13.364;2023-09-19T07:12:17;19.20;99.90
5041;DHT22;2539;52.568;13.364;2023-09-19T07:14:44;19.70;99.90
5041;DHT22;2539;52.568;13.364;2023-09-19T07:17:10;20.00;99.90
5041;DHT22;2539;52.568;13.364;2023-09-19T07:19:37;19.90;99.90
5041;DHT22;2539;52.568;13.364;2023-09-19T07:22:03;19.30;99.90
5041;DHT22;2539;52.568;13.364;2023-09-19T07:24:30;19.30;99.90
5041;DHT22;2539;52.568;13.364;2023-09-19T07:26:56;19.50;99.90
5041;DHT22;2539;52.568;13.364;2023-09-19T07:29:22;19.10;99.90
5041;DHT22;2539;52.568;13.364;2023-09-19T07:31:48;19.10;99.90
5041;DHT22;2539;52.568;13.364;2023-09-19T07:34:14;18.90;99.90
5041;DHT22;2539;52.568;13.364;2023-09-19T07:36:43;18.70;99.90
5041;DHT22;2539;52.568;13.364;2023-09-19T07:39:09;18.90;99.90
5041;DHT22;2539;52.568;13.364;2023-09-19T07:41:36;19.00;99.90
5041;DHT22;2539;52.568;13.364;2023-09-19T07:44:02;18.90;99.90
5041;DHT22;2539;52.568;13.364;2023-09-19T07:46:28;19.10;99.90
5041;DHT22;2539;52.568;13.364;2023-09-19T07:48:57;18.90;99.90
5041;DHT22;2539;52.568;13.364;2023-09-19T07:51:24;18.80;99.90
5041;DHT22;2539;52.568;13.364;2023-09-19T07:53:50;18.80;99.90
5041;DHT22;2539;52.568;13.364;2023-09-19T07:56:16;18.70;99.90
5041;DHT22;2539;52.568;13.364;2023-09-19T07:58:45;18.60;99.90
5041;DHT22;2539;52.568;13.364;2023-09-19T08:01:12;18.50;99.90
5041;DHT22;2539;52.568;13.364;2023-09-19T08:03:40;18.80;99.90
5041;DHT22;2539;52.568;13.364;2023-09-19T08:06:07;18.70;99.90
5041;DHT22;2539;52.568;13.364;2023-09-19T08:08:34;18.70;99.90
5041;DHT22;2539;52.568;13.364;2023-09-19T08:11:03;18.90;99.90
5041;DHT22;2539;52.568;13.364;2023-09-19T08:13:41;18.90;99.90
5041;DHT22;2539;52.568;13.364;2023-09-19T08:16:10;19.00;99.90
5041;DHT22;2539;52.568;13.364;2023-09-19T08:18:37;19.10;99.90
5041;DHT22;2539;52.568;13.364;2023-09-19T08:21:06;19.00;99.90
5041;DHT22;2539;52.568;13.364;2023-09-19T08:23:37;18.70;99.90
5041;DHT22;2539;52.568;13.364;2023-09-19T08:26:05;18.50;99.90
5041;DHT22;2539;52.568;13.364;2023-09-19T08:28:35;18.50;99.90
5041;DHT22;2539;52.568;13.364;2023-09-19T08:31:05;18.60;99.90
5041;DHT22;2539;52.568;13.364;2023-09-19T08:33:32;18.70;99.90
5041;DHT22;2539;52.568;13.364;2023-09-19T08:36:00;18.50;99.90
5041;DHT22;2539;52.568;13.364;2023-09-19T08:38:26;18.40;99.90
5041;DHT22;2539;52.568;13.364;2023-09-19T08:41:00;18.30;99.90
5041;DHT22;2539;52.568;13.364;2023-09-19T08:43:27;18.30;99.90
5041;DHT22;2539;52.568;13.364;2023-09-19T08:46:03;18.20;99.90
5041;DHT22;2539;52.568;13.364;2023-09-19T08:48:34;18.20;99.90
5041;DHT22;2539;52.568;13.364;2023-09-19T08:51:07;18.20;99.90
5041;DHT22;2539;52.568;13.364;2023-09-19T08:53:42;18.20;99.90
5041;DHT22;2539;52.568;13.364;2023-09-19T08:56:12;18.30;99.90
5041;DHT22;2539;52.568;13.364;2023-09-19T08:58:46;18.30;99.90
5041;DHT22;2539;52.568;13.364;2023-09-19T09:01:15;18.40;99.90
5041;DHT22;2539;52.568;13.364;2023-09-19T09:03:42;18.50;99.90
5041;DHT22;2539;52.568;13.364;2023-09-19T09:06:14;18.60;99.90
5041;DHT22;2539;52.568;13.364;2023-09-19T09:08:42;18.90;99.90
5041;DHT22;2539;52.568;13.364;2023-09-19T09:11:09;18.90;99.90
5041;DHT22;2539;52.568;13.364;2023-09-19T09:13:36;19.00;99.90
5041;DHT22;2539;52.568;13.364;2023-09-19T09:16:03;18.80;99.90
5041;DHT22;2539;52.568;13.364;2023-09-19T09:18:30;18.90;99.90
5041;DHT22;2539;52.568;13.364;2023-09-19T09:20:56;19.10;99.90
5041;DHT22;2539;52.568;13.364;2023-09-19T09:23:22;19.20;99.90
5041;DHT22;2539;52.568;13.364;2023-09-19T09:25:51;19.40;99.90
5041;DHT22;2539;52.568;13.364;2023-09-19T09:28:27;19.50;99.90
5041;DHT22;2539;52.568;13.364;2023-09-19T09:31:00;19.30;99.90
5041;DHT22;2539;52.568;13.364;2023-09-19T09:33:34;19.20;99.90
5041;DHT22;2539;52.568;13.364;2023-09-19T09:36:02;18.90;99.90
5041;DHT22;2539;52.568;13.364;2023-09-19T09:38:42;18.90;99.90
5041;DHT22;2539;52.568;13.364;2023-09-19T09:41:09;19.00;99.90
5041;DHT22;2539;52.568;13.364;2023-09-19T09:43:39;19.10;99.90
5041;DHT22;2539;52.568;13.364;2023-09-19T09:46:09;19.30;99.90
5041;DHT22;2539;52.568;13.364;2023-09-19T09:52:01;19.90;99.90
5041;DHT22;2539;52.568;13.364;2023-09-19T09:54:31;19.90;99.90
5041;DHT22;2539;52.568;13.364;2023-09-19T09:57:06;19.90;99.90
5041;DHT22;2539;52.568;13.364;2023-09-19T09:59:52;19.70;99.90
5041;DHT22;2539;52.568;13.364;2023-09-19T10:02:21;20.00;99.90
5041;DHT22;2539;52.568;13.364;2023-09-19T10:04:52;20.10;99.90
5041;DHT22;2539;52.568;13.364;2023-09-19T10:07:28;19.80;99.90
5041;DHT22;2539;52.568;13.364;2023-09-19T10:10:01;19.30;99.90
5041;DHT22;2539;52.568;13.364;2023-09-19T10:12:39;19.30;99.90
5041;DHT22;2539;52.568;13.364;2023-09-19T10:15:08;19.60;99.90
5041;DHT22;2539;52.568;13.364;2023-09-19T10:17:40;19.70;99.90
5041;DHT22;2539;52.568;13.364;2023-09-19T10:20:21;19.60;99.90
5041;DHT22;2539;52.568;13.364;2023-09-19T10:23:00;19.60;99.90
5041;DHT22;2539;52.568;13.364;2023-09-19T10:25:28;19.60;99.90
5041;DHT22;2539;52.568;13.364;2023-09-19T10:28:00;19.50;99.90
5041;DHT22;2539;52.568;13.364;2023-09-19T10:30:37;19.70;99.90
5041;DHT22;2539;52.568;13.364;2023-09-19T10:33:04;19.90;99.90
5041;DHT22;2539;52.568;13.364;2023-09-19T10:35:32;19.90;99.90
5041;DHT22;2539;52.568;13.364;2023-09-19T10:38:01;19.80;99.90
5041;DHT22;2539;52.568;13.364;2023-09-19T10:40:28;19.90;99.90
5041;DHT22;2539;52.568;13.364;2023-09-19T10:43:01;20.10;99.90
5041;DHT22;2539;52.568;13.364;2023-09-19T10:45:31;20.10;99.90
5041;DHT22;2539;52.568;13.364;2023-09-19T10:47:58;20.10;99.90
5041;DHT22;2539;52.568;13.364;2023-09-19T10:50:25;20.40;99.90
5041;DHT22;2539;52.568;13.364;2023-09-19T10:52:54;20.60;99.90
5041;DHT22;2539;52.568;13.364;2023-09-19T10:55:31;20.90;99.90
5041;DHT22;2539;52.568;13.364;2023-09-19T10:57:59;20.90;99.90
5041;DHT22;2539;52.568;13.364;2023-09-19T11:00:27;20.50;99.90
5041;DHT22;2539;52.568;13.364;2023-09-19T11:05:39;20.70;99.90
5041;DHT22;2539;52.568;13.364;2023-09-19T11:08:10;20.50;99.90
5041;DHT22;2539;52.568;13.364;2023-09-19T11:10:51;20.10;99.90
5041;DHT22;2539;52.568;13.364;2023-09-19T11:13:28;20.10;99.90
5041;DHT22;2539;52.568;13.364;2023-09-19T11:24:30;20.00;99.90
5041;DHT22;2539;52.568;13.364;2023-09-19T11:27:11;20.10;99.90
5041;DHT22;2539;52.568;13.364;2023-09-19T11:29:40;20.30;99.90
5041;DHT22;2539;52.568;13.364;2023-09-19T11:32:07;20.20;99.90
5041;DHT22;2539;52.568;13.364;2023-09-19T11:37:15;20.20;99.90
5041;DHT22;2539;52.568;13.364;2023-09-19T11:40:08;20.10;99.90
5041;DHT22;2539;52.568;13.364;2023-09-19T11:42:47;20.30;99.90
5041;DHT22;2539;52.568;13.364;2023-09-19T11:48:24;20.50;99.90
5041;DHT22;2539;52.568;13.364;2023-09-19T11:50:53;20.70;99.90
5041;DHT22;2539;52.568;13.364;2023-09-19T11:53:21;20.60;99.90
5041;DHT22;2539;52.568;13.364;2023-09-19T11:55:49;20.70;99.90
5041;DHT22;2539;52.568;13.364;2023-09-19T11:58:16;20.50;99.90
5041;DHT22;2539;52.568;13.364;2023-09-19T12:00:45;20.50;99.90
5041;DHT22;2539;52.568;13.364;2023-09-19T12:03:12;20.40;99.90
5041;DHT22;2539;52.568;13.364;2023-09-19T12:05:40;20.40;99.90
5041;DHT22;2539;52.568;13.364;2023-09-19T12:08:09;20.40;99.90
5041;DHT22;2539;52.568;13.364;2023-09-19T12:10:47;20.60;99.90
5041;DHT22;2539;52.568;13.364;2023-09-19T12:13:20;20.80;99.90
5041;DHT22;2539;52.568;13.364;2023-09-19T12:15:47;20.90;99.50
5041;DHT22;2539;52.568;13.364;2023-09-19T12:18:31;21.00;99.80
5041;DHT22;2539;52.568;13.364;2023-09-19T12:20:59;21.30;99.80
5041;DHT22;2539;52.568;13.364;2023-09-19T12:23:30;21.50;99.10
5041;DHT22;2539;52.568;13.364;2023-09-19T12:25:58;21.60;99.10
5041;DHT22;2539;52.568;13.364;2023-09-19T12:28:27;21.60;98.70
5041;DHT22;2539;52.568;13.364;2023-09-19T12:30:54;21.60;98.60
5041;DHT22;2539;52.568;13.364;2023-09-19T12:33:24;21.60;98.60
5041;DHT22;2539;52.568;13.364;2023-09-19T12:35:53;21.60;98.60
5041;DHT22;2539;52.568;13.364;2023-09-19T12:38:24;21.80;98.60
5041;DHT22;2539;52.568;13.364;2023-09-19T12:40:52;21.50;98.10
5041;DHT22;2539;52.568;13.364;2023-09-19T12:43:19;21.40;97.90
5041;DHT22;2539;52.568;13.364;2023-09-19T12:45:45;21.50;98.00
5041;DHT22;2539;52.568;13.364;2023-09-19T12:48:26;21.40;98.00
5041;DHT22;2539;52.568;13.364;2023-09-19T12:51:08;21.60;98.00
5041;DHT22;2539;52.568;13.364;2023-09-19T12:53:46;21.70;97.80
5041;DHT22;2539;52.568;13.364;2023-09-19T12:56:22;21.80;97.50
5041;DHT22;2539;52.568;13.364;2023-09-19T12:58:53;21.80;97.50
5041;DHT22;2539;52.568;13.364;2023-09-19T13:01:20;21.80;97.60
5041;DHT22;2539;52.568;13.364;2023-09-19T13:04:19;21.80;97.60
5041;DHT22;2539;52.568;13.364;2023-09-19T13:06:46;21.70;97.30
5041;DHT22;2539;52.568;13.364;2023-09-19T13:09:15;21.70;97.40
5041;DHT22;2539;52.568;13.364;2023-09-19T13:11:42;21.70;96.90
5041;DHT22;2539;52.568;13.364;2023-09-19T13:17:12;21.60;97.80
5041;DHT22;2539;52.568;13.364;2023-09-19T13:19:50;21.70;97.90
5041;DHT22;2539;52.568;13.364;2023-09-19T13:22:40;21.60;97.30
5041;DHT22;2539;52.568;13.364;2023-09-19T13:25:19;21.70;98.00
5041;DHT22;2539;52.568;13.364;2023-09-19T13:27:50;21.70;97.90
5041;DHT22;2539;52.568;13.364;2023-09-19T13:30:17;21.70;97.90
5041;DHT22;2539;52.568;13.364;2023-09-19T13:32:44;21.30;97.90
5041;DHT22;2539;52.568;13.364;2023-09-19T13:35:14;21.50;98.10
5041;DHT22;2539;52.568;13.364;2023-09-19T13:37:42;21.60;98.40
5041;DHT22;2539;52.568;13.364;2023-09-19T13:40:10;21.50;98.30
5041;DHT22;2539;52.568;13.364;2023-09-19T13:42:37;21.40;97.80
5041;DHT22;2539;52.568;13.364;2023-09-19T13:45:04;21.30;97.30
5041;DHT22;2539;52.568;13.364;2023-09-19T13:47:31;21.10;97.70
5041;DHT22;2539;52.568;13.364;2023-09-19T13:50:02;20.90;97.50
5041;DHT22;2539;52.568;13.364;2023-09-19T13:52:31;20.80;97.90
5041;DHT22;2539;52.568;13.364;2023-09-19T13:54:58;20.70;98.10
5041;DHT22;2539;52.568;13.364;2023-09-19T13:57:26;20.70;98.20
5041;DHT22;2539;52.568;13.364;2023-09-19T13:59:53;20.90;98.60
5041;DHT22;2539;52.568;13.364;2023-09-19T14:02:22;20.90;98.70
5041;DHT22;2539;52.568;13.364;2023-09-19T14:04:49;20.70;98.60
5041;DHT22;2539;52.568;13.364;2023-09-19T14:07:16;20.90;98.80
5041;DHT22;2539;52.568;13.364;2023-09-19T14:09:44;21.00;97.80
5041;DHT22;2539;52.568;13.364;2023-09-19T14:12:11;20.90;98.10
5041;DHT22;2539;52.568;13.364;2023-09-19T14:14:38;20.90;98.30
5041;DHT22;2539;52.568;13.364;2023-09-19T14:17:04;21.00;98.80
5041;DHT22;2539;52.568;13.364;2023-09-19T14:19:31;21.00;98.20
5041;DHT22;2539;52.568;13.364;2023-09-19T14:21:58;21.00;98.40
5041;DHT22;2539;52.568;13.364;2023-09-19T14:24:25;21.10;98.10
5041;DHT22;2539;52.568;13.364;2023-09-19T14:26:51;21.20;98.30
5041;DHT22;2539;52.568;13.364;2023-09-19T14:29:18;21.30;98.60
5041;DHT22;2539;52.568;13.364;2023-09-19T14:31:45;21.00;98.20
5041;DHT22;2539;52.568;13.364;2023-09-19T14:34:12;21.00;98.60
5041;DHT22;2539;52.568;13.364;2023-09-19T14:36:38;21.10;98.40
5041;DHT22;2539;52.568;13.364;2023-09-19T14:39:05;21.10;98.80
5041;DHT22;2539;52.568;13.364;2023-09-19T14:41:31;20.90;98.30
5041;DHT22;2539;52.568;13.364;2023-09-19T14:43:57;20.70;98.70
5041;DHT22;2539;52.568;13.364;2023-09-19T14:46:24;20.90;98.80
5041;DHT22;2539;52.568;13.364;2023-09-19T14:48:51;20.90;99.20
5041;DHT22;2539;52.568;13.364;2023-09-19T14:51:18;21.00;98.80
5041;DHT22;2539;52.568;13.364;2023-09-19T14:53:45;21.00;98.80
5041;DHT22;2539;52.568;13.364;2023-09-19T14:56:13;20.90;98.50
5041;DHT22;2539;52.568;13.364;2023-09-19T14:58:44;21.00;99.00
5041;DHT22;2539;52.568;13.364;2023-09-19T15:01:12;21.00;99.00
5041;DHT22;2539;52.568;13.364;2023-09-19T15:03:42;21.10;99.30
5041;DHT22;2539;52.568;13.364;2023-09-19T15:06:10;21.00;98.80
5041;DHT22;2539;52.568;13.364;2023-09-19T15:08:47;21.00;99.00
5041;DHT22;2539;52.568;13.364;2023-09-19T15:11:14;21.00;98.80
5041;DHT22;2539;52.568;13.364;2023-09-19T15:13:44;21.00;99.20
5041;DHT22;2539;52.568;13.364;2023-09-19T15:16:11;21.10;99.30
5041;DHT22;2539;52.568;13.364;2023-09-19T15:18:41;21.10;99.60
5041;DHT22;2539;52.568;13.364;2023-09-19T15:21:09;21.10;99.30
5041;DHT22;2539;52.568;13.364;2023-09-19T15:23:37;21.10;99.00
5041;DHT22;2539;52.568;13.364;2023-09-19T15:26:04;21.00;98.70
5041;DHT22;2539;52.568;13.364;2023-09-19T15:28:31;21.00;99.10
5041;DHT22;2539;52.568;13.364;2023-09-19T15:31:03;20.90;99.10
5041;DHT22;2539;52.568;13.364;2023-09-19T15:33:30;20.90;99.10
5041;DHT22;2539;52.568;13.364;2023-09-19T15:36:01;20.80;99.10
5041;DHT22;2539;52.568;13.364;2023-09-19T15:38:30;20.80;98.90
5041;DHT22;2539;52.568;13.364;2023-09-19T15:40:58;20.70;99.10
5041;DHT22;2539;52.568;13.364;2023-09-19T15:43:24;20.60;99.30
5041;DHT22;2539;52.568;13.364;2023-09-19T15:45:50;20.60;99.50
5041;DHT22;2539;52.568;13.364;2023-09-19T15:48:16;20.60;99.70
5041;DHT22;2539;52.568;13.364;2023-09-19T15:50:42;20.60;99.20
5041;DHT22;2539;52.568;13.364;2023-09-19T15:53:10;20.80;98.90
5041;DHT22;2539;52.568;13.364;2023-09-19T15:55:39;21.00;99.30
5041;DHT22;2539;52.568;13.364;2023-09-19T15:58:06;20.90;99.20
5041;DHT22;2539;52.568;13.364;2023-09-19T16:00:32;20.80;99.20
5041;DHT22;2539;52.568;13.364;2023-09-19T16:03:02;20.70;99.40
5041;DHT22;2539;52.568;13.364;2023-09-19T16:05:28;20.60;99.60
5041;DHT22;2539;52.568;13.364;2023-09-19T16:08:03;20.40;99.00
5041;DHT22;2539;52.568;13.364;2023-09-19T16:10:30;20.40;99.70
5041;DHT22;2539;52.568;13.364;2023-09-19T16:13:00;20.30;99.60
5041;DHT22;2539;52.568;13.364;2023-09-19T16:15:26;20.20;99.90
5041;DHT22;2539;52.568;13.364;2023-09-19T16:17:52;20.10;99.90
5041;DHT22;2539;52.568;13.364;2023-09-19T16:20:18;20.10;99.90
5041;DHT22;2539;52.568;13.364;2023-09-19T16:22:45;20.00;99.90
5041;DHT22;2539;52.568;13.364;2023-09-19T16:25:12;20.00;99.90
5041;DHT22;2539;52.568;13.364;2023-09-19T16:27:39;19.90;99.80
5041;DHT22;2539;52.568;13.364;2023-09-19T16:30:06;19.80;99.90
5041;DHT22;2539;52.568;13.364;2023-09-19T16:32:36;19.70;99.90